Time;durP1;ratioP1;P1;durP2;ratioP2;P2;SDS_P1;SDS_P2;PMS_P1;PMS_P2;Temp;Humidity;BMP_temperature;BMP_pressure;BME280_temperature;BME280_humidity;BME280_pressure;Samples;Min_cycle;Max_cycle;Signal;HPM_P1;HPM_P2
2022/07/23 00:01:07;;;;;;;0.85;0.70;;;;;;;20.84;69.41;101103.13;4975787;28;20086;-63
2022/07/23 00:03:33;;;;;;;0.85;0.50;;;;;;;20.82;69.67;101099.25;4984887;28;20038;-63
2022/07/23 00:06:00;;;;;;;1.45;0.65;;;;;;;20.88;69.44;101100.31;4981476;28;20041;-63
2022/07/23 00:08:26;;;;;;;1.02;0.50;;;;;;;20.86;69.44;101092.53;4985124;28;20042;-61
2022/07/23 00:10:54;;;;;;;0.82;0.40;;;;;;;20.86;69.40;101083.53;4984432;28;20034;-61
2022/07/23 00:13:22;;;;;;;1.65;0.50;;;;;;;20.85;69.32;101088.22;4985871;28;20030;-60
2022/07/23 00:15:55;;;;;;;0.85;0.50;;;;;;;20.91;68.95;101081.09;4992248;28;20034;-60
2022/07/23 00:18:21;;;;;;;0.37;0.37;;;;;;;20.91;69.13;101075.63;4983648;28;20034;-62
2022/07/23 00:20:52;;;;;;;0.98;0.73;;;;;;;20.86;69.70;101078.06;4987767;28;20281;-62
2022/07/23 00:23:17;;;;;;;1.00;0.68;;;;;;;20.79;69.96;101072.69;4993148;28;20031;-61
2022/07/23 00:25:49;;;;;;;1.75;0.80;;;;;;;20.69;70.49;101077.88;4981768;28;20036;-61
2022/07/23 00:28:14;;;;;;;0.68;0.57;;;;;;;20.67;70.78;101074.03;4976556;28;20043;-62
2022/07/23 00:30:41;;;;;;;2.13;0.63;;;;;;;20.67;70.90;101069.31;4987191;28;20233;-63
2022/07/23 00:33:07;;;;;;;0.75;0.65;;;;;;;20.74;70.92;101065.72;4986622;28;20042;-62
2022/07/23 00:35:37;;;;;;;1.63;0.90;;;;;;;20.77;70.33;101075.06;4979497;28;20065;-63
2022/07/23 00:38:06;;;;;;;1.75;0.60;;;;;;;20.73;70.31;101069.63;4984561;28;20057;-63
2022/07/23 00:40:33;;;;;;;0.63;0.63;;;;;;;20.73;70.26;101069.63;4983243;28;20038;-62
2022/07/23 00:43:02;;;;;;;1.05;0.70;;;;;;;20.68;71.06;101056.41;4998385;28;20483;-62
2022/07/23 00:45:30;;;;;;;1.83;0.70;;;;;;;20.73;70.68;101063.38;4985743;28;20066;-62
2022/07/23 00:48:03;;;;;;;3.53;0.70;;;;;;;20.73;70.90;101066.88;4984198;28;20077;-61
2022/07/23 00:50:29;;;;;;;4.03;0.80;;;;;;;20.75;70.35;101066.50;4983214;28;20051;-62
2022/07/23 00:53:04;;;;;;;0.70;0.68;;;;;;;20.78;70.49;101068.38;4986246;28;20030;-61
2022/07/23 00:55:32;;;;;;;0.85;0.50;;;;;;;20.72;71.00;101070.81;4987518;28;20497;-61
2022/07/23 00:58:01;;;;;;;3.00;0.80;;;;;;;20.63;71.76;101062.34;4998685;28;20045;-61
2022/07/23 01:00:31;;;;;;;1.20;0.70;;;;;;;20.58;72.15;101069.06;4967088;28;20116;-61
2022/07/23 01:03:05;;;;;;;1.02;0.50;;;;;;;20.60;72.41;101074.91;4988993;28;20092;-61
2022/07/23 01:05:30;;;;;;;0.65;0.60;;;;;;;20.63;72.18;101076.78;4987495;28;20034;-64
2022/07/23 01:08:01;;;;;;;2.47;0.60;;;;;;;20.66;71.91;101069.72;4985333;28;20081;-62
2022/07/23 01:10:32;;;;;;;0.75;0.63;;;;;;;20.68;71.67;101070.09;4985876;28;20133;-61
2022/07/23 01:13:11;;;;;;;2.15;0.80;;;;;;;20.62;71.63;101066.28;4987255;28;20111;-61
2022/07/23 01:15:40;;;;;;;1.35;0.50;;;;;;;20.65;71.67;101062.72;5017882;28;20023;-62
2022/07/23 01:18:15;;;;;;;1.73;0.60;;;;;;;20.65;71.89;101057.25;4988331;28;20034;-61
2022/07/23 01:20:44;;;;;;;1.70;0.63;;;;;;;20.66;71.64;101054.09;4982384;28;20027;-62
2022/07/23 01:23:12;;;;;;;0.60;0.60;;;;;;;20.65;71.50;101046.28;4972048;28;20133;-61
2022/07/23 01:25:56;;;;;;;2.42;0.50;;;;;;;20.62;71.81;101044.38;4979522;28;20440;-62
2022/07/23 01:28:26;;;;;;;1.35;0.70;;;;;;;20.53;71.64;101046.84;4999156;28;20461;-62
2022/07/23 01:30:55;;;;;;;;;;;;;;;20.46;71.84;101049.69;4987556;28;20452;-61
2022/07/23 01:33:20;;;;;;;1.42;0.47;;;;;;;20.53;71.55;101063.28;5007858;28;19917;-62
2022/07/23 01:35:46;;;;;;;3.30;0.70;;;;;;;20.55;71.11;101048.00;4991378;28;20027;-61
2022/07/23 01:38:17;;;;;;;2.45;0.60;;;;;;;20.57;70.95;101045.63;4987481;28;20066;-61
2022/07/23 01:40:43;;;;;;;0.70;0.47;;;;;;;20.48;71.34;101052.78;4982286;28;20057;-62
2022/07/23 01:43:09;;;;;;;1.88;0.60;;;;;;;20.45;71.18;101039.94;4986683;28;20508;-59
2022/07/23 01:45:40;;;;;;;1.85;0.60;;;;;;;20.45;70.86;101051.66;4979623;28;20038;-61
2022/07/23 01:48:06;;;;;;;3.45;0.60;;;;;;;20.46;70.56;101044.22;4984330;28;20061;-61
2022/07/23 01:50:32;;;;;;;1.85;0.60;;;;;;;20.37;70.97;101044.72;4990725;28;20033;-61
2022/07/23 01:53:35;;;;;;;4.30;0.60;;;;;;;20.37;70.53;101035.72;4992798;28;20053;-62
2022/07/23 01:56:06;;;;;;;2.60;0.47;;;;;;;20.43;69.45;101034.09;4986840;28;20042;-62
2022/07/23 01:58:35;;;;;;;0.80;0.50;;;;;;;20.40;69.43;101027.47;4968077;28;20065;-61
2022/07/23 02:01:03;;;;;;;1.00;0.40;;;;;;;20.39;69.65;101023.19;4988658;28;20026;-61
2022/07/23 02:03:29;;;;;;;1.95;0.40;;;;;;;20.37;69.62;101011.09;4988271;28;20034;-62
2022/07/23 02:05:58;;;;;;;2.58;0.50;;;;;;;20.38;69.27;101009.94;4969467;28;20030;-62
2022/07/23 02:08:26;;;;;;;1.95;0.60;;;;;;;20.38;69.13;101009.94;4982956;28;20030;-61
2022/07/23 02:10:52;;;;;;;0.40;0.40;;;;;;;20.40;69.11;101007.56;4967824;28;20030;-62
2022/07/23 02:13:25;;;;;;;0.40;0.40;;;;;;;20.36;68.98;101009.56;4986623;28;20034;-61
2022/07/23 02:15:55;;;;;;;0.52;0.52;;;;;;;20.39;68.38;101014.22;5016770;28;20074;-61
2022/07/23 02:18:23;;;;;;;3.23;0.50;;;;;;;20.34;68.67;101004.47;4999147;28;20133;-62
2022/07/23 02:20:53;;;;;;;0.65;0.50;;;;;;;20.32;69.01;101006.09;4985026;28;20289;-61
2022/07/23 02:23:18;;;;;;;3.03;0.47;;;;;;;20.29;69.55;101009.66;4988942;28;20030;-62
2022/07/23 02:25:48;;;;;;;2.25;0.52;;;;;;;20.31;69.41;101015.47;4985200;28;20027;-62
2022/07/23 02:28:23;;;;;;;1.02;0.68;;;;;;;20.31;69.17;101001.81;4989224;28;20377;-61
2022/07/23 02:30:54;;;;;;;0.60;0.45;;;;;;;20.28;69.11;101005.38;4986113;28;20489;-62
2022/07/23 02:33:30;;;;;;;0.50;0.40;;;;;;;20.29;69.22;101001.44;4981254;28;20026;-62
2022/07/23 02:35:58;;;;;;;1.60;0.55;;;;;;;20.23;69.76;101009.34;4984455;28;20492;-62
2022/07/23 02:38:24;;;;;;;1.05;0.40;;;;;;;20.26;69.55;100996.81;4970693;28;20027;-63
2022/07/23 02:40:52;;;;;;;0.40;0.40;;;;;;;20.24;69.77;100997.22;4986404;28;20065;-62
2022/07/23 02:43:18;;;;;;;1.92;0.50;;;;;;;20.26;69.82;101007.75;4995828;28;20030;-61
2022/07/23 02:45:50;;;;;;;0.50;0.50;;;;;;;20.23;70.16;100995.66;4981460;28;20121;-61
2022/07/23 02:48:16;;;;;;;0.88;0.50;;;;;;;20.17;70.69;101004.72;4987525;28;20045;-62
2022/07/23 02:50:46;;;;;;;3.00;1.08;;;;;;;20.13;70.93;100998.53;4987284;28;20035;-62
2022/07/23 02:53:15;;;;;;;0.55;0.50;;;;;;;19.98;71.92;101002.59;4985630;28;20041;-61
2022/07/23 02:55:42;;;;;;;1.42;0.35;;;;;;;19.92;72.38;100999.53;4989674;28;20031;-62
2022/07/23 02:58:07;;;;;;;1.23;0.50;;;;;;;19.84;73.24;100998.06;4990886;28;20405;-62
2022/07/23 03:00:40;;;;;;;3.50;0.50;;;;;;;19.79;73.67;101002.06;4990842;28;20038;-62
2022/07/23 03:03:11;;;;;;;1.00;0.50;;;;;;;19.74;73.58;100982.59;4987703;28;20050;-62
2022/07/23 03:05:41;;;;;;;0.80;0.40;;;;;;;19.62;74.23;100980.41;5002238;28;20040;-62
2022/07/23 03:08:06;;;;;;;0.85;0.52;;;;;;;19.55;74.53;100977.75;4989768;28;20098;-63
2022/07/23 03:10:34;;;;;;;5.88;0.40;;;;;;;19.51;74.58;100990.69;4989161;28;20034;-62
2022/07/23 03:13:05;;;;;;;1.45;0.47;;;;;;;19.52;74.96;100987.53;4990084;28;20043;-62
2022/07/23 03:15:33;;;;;;;1.38;0.50;;;;;;;19.48;75.11;100980.53;4991474;28;20031;-63
2022/07/23 03:18:01;;;;;;;0.77;0.50;;;;;;;19.46;75.36;100980.97;4987084;28;20273;-62
2022/07/23 03:20:36;;;;;;;2.80;0.70;;;;;;;19.46;75.42;100993.84;4972072;28;20030;-64
2022/07/23 03:23:04;;;;;;;0.45;0.45;;;;;;;19.46;75.20;100988.38;4991861;28;20117;-62
2022/07/23 03:25:32;;;;;;;0.33;0.33;;;;;;;19.43;75.51;100989.97;4986433;28;20485;-63
2022/07/23 03:27:58;;;;;;;0.90;0.50;;;;;;;19.40;75.70;100985.31;4989402;28;20441;-62
2022/07/23 03:30:29;;;;;;;0.98;0.50;;;;;;;19.36;76.26;100995.50;4973512;28;20046;-61
2022/07/23 03:32:57;;;;;;;1.05;0.52;;;;;;;19.42;76.22;100990.38;4984222;28;20034;-62
2022/07/23 03:35:25;;;;;;;0.70;0.50;;;;;;;19.34;76.56;100983.41;4985292;28;20030;-62
2022/07/23 03:38:10;;;;;;;0.60;0.45;;;;;;;19.20;76.92;100987.03;4989076;28;20125;-64
2022/07/23 03:40:38;;;;;;;2.35;0.68;;;;;;;19.08;77.65;100993.03;4990849;28;20140;-62
2022/07/23 03:43:07;;;;;;;0.50;0.50;;;;;;;18.87;78.38;100987.75;4984570;28;20092;-62
2022/07/23 03:45:35;;;;;;;1.42;0.90;;;;;;;18.85;79.17;100979.94;4988663;28;20054;-62
2022/07/23 03:48:03;;;;;;;2.05;0.68;;;;;;;18.84;79.21;100983.06;4988535;28;20033;-62
2022/07/23 03:50:31;;;;;;;1.98;0.80;;;;;;;18.87;79.65;100993.19;4972533;28;20042;-62
2022/07/23 03:52:59;;;;;;;2.47;0.82;;;;;;;18.87;79.55;100996.69;4989947;28;20065;-62
2022/07/23 03:55:27;;;;;;;0.85;0.60;;;;;;;18.78;79.95;100992.88;4990066;28;20026;-62
2022/07/23 03:58:02;;;;;;;0.50;0.40;;;;;;;18.72;79.48;100999.94;4986350;28;20029;-62
2022/07/23 04:00:30;;;;;;;1.42;0.55;;;;;;;18.51;80.42;100995.41;4990073;28;20393;-62
2022/07/23 04:02:58;;;;;;;1.38;0.70;;;;;;;18.59;80.78;101007.81;4990158;28;20068;-62
2022/07/23 04:05:29;;;;;;;1.70;0.45;;;;;;;18.66;80.45;100998.81;4984793;28;20493;-62
2022/07/23 04:08:07;;;;;;;0.50;0.50;;;;;;;18.53;81.12;101008.63;4989484;28;20041;-63
2022/07/23 04:10:34;;;;;;;0.57;0.57;;;;;;;18.68;80.67;101005.41;5059390;22;20052;-63
2022/07/23 04:13:01;;;;;;;1.15;0.50;;;;;;;18.77;80.58;101003.03;5013012;28;20042;-61
2022/07/23 04:15:30;;;;;;;0.57;0.52;;;;;;;18.86;80.52;100997.09;5016115;28;20052;-64
2022/07/23 04:17:57;;;;;;;1.90;0.70;;;;;;;18.96;80.20;101006.38;4994745;28;20042;-63
2022/07/23 04:20:32;;;;;;;0.77;0.77;;;;;;;18.98;80.57;101002.06;5005643;28;20040;-64
2022/07/23 04:23:01;;;;;;;2.63;0.70;;;;;;;19.04;81.20;101010.59;4994640;28;20069;-62
2022/07/23 04:25:29;;;;;;;2.17;0.75;;;;;;;19.16;81.22;101013.63;5006414;28;20048;-63
2022/07/23 04:27:55;;;;;;;1.35;0.77;;;;;;;19.18;81.16;101005.03;5012942;28;20048;-63
2022/07/23 04:30:23;;;;;;;1.05;0.73;;;;;;;19.27;80.85;101005.31;5008747;28;20029;-63
2022/07/23 04:32:48;;;;;;;0.82;0.80;;;;;;;19.38;80.12;101019.66;4996693;28;20030;-63
2022/07/23 04:35:25;;;;;;;1.17;0.70;;;;;;;19.50;79.47;101014.50;5010035;28;20037;-63
2022/07/23 04:37:54;;;;;;;0.75;0.68;;;;;;;19.56;79.01;101015.59;5003659;28;20381;-62
2022/07/23 04:40:21;;;;;;;4.47;0.70;;;;;;;19.61;78.51;101006.94;5009486;28;20363;-63
2022/07/23 04:42:49;;;;;;;2.90;0.80;;;;;;;19.67;77.77;101012.72;5002661;28;20091;-63
2022/07/23 04:45:19;;;;;;;0.60;0.60;;;;;;;19.69;77.60;101010.38;5002069;28;20061;-64
2022/07/23 04:47:58;;;;;;;0.73;0.60;;;;;;;19.68;77.17;101012.34;5015747;28;20033;-62
2022/07/23 04:50:29;;;;;;;0.80;0.80;;;;;;;19.58;77.97;101017.91;5002521;28;20033;-63
2022/07/23 04:52:57;;;;;;;3.53;0.70;;;;;;;19.63;77.82;101017.47;5010424;28;20048;-63
2022/07/23 04:55:30;;;;;;;1.73;0.60;;;;;;;19.62;78.00;101013.97;5019539;28;20435;-63
2022/07/23 04:57:56;;;;;;;1.52;0.70;;;;;;;19.62;78.05;101013.97;5004771;28;20060;-63
2022/07/23 05:00:21;;;;;;;0.77;0.60;;;;;;;19.67;78.04;101013.50;4999049;28;20111;-63
2022/07/23 05:02:52;;;;;;;1.38;0.80;;;;;;;19.74;77.85;101009.94;5022665;28;20519;-63
2022/07/23 05:05:17;;;;;;;1.55;0.70;;;;;;;19.79;77.29;101025.88;5017290;28;20030;-61
2022/07/23 05:07:52;;;;;;;1.65;0.73;;;;;;;19.75;77.90;101025.16;5000493;28;20106;-63
2022/07/23 05:10:21;;;;;;;3.63;0.70;;;;;;;19.69;78.14;101024.03;5010103;28;20108;-62
2022/07/23 05:12:47;;;;;;;1.35;0.90;;;;;;;19.71;78.43;101022.44;5029615;28;20120;-61
2022/07/23 05:15:15;;;;;;;2.35;0.60;;;;;;;19.62;79.30;101024.91;5025227;28;20114;-63
2022/07/23 05:17:43;;;;;;;1.00;0.77;;;;;;;19.67;79.40;101027.19;5001942;28;20116;-63
2022/07/23 05:20:13;;;;;;;2.03;0.80;;;;;;;19.70;79.93;101026.34;5027063;28;20045;-64
2022/07/23 05:22:42;;;;;;;3.70;0.90;;;;;;;19.66;80.93;101030.31;5028203;28;20041;-62
2022/07/23 05:25:11;;;;;;;2.45;0.95;;;;;;;19.59;81.52;101033.91;5017812;28;20026;-61
2022/07/23 05:27:37;;;;;;;1.13;0.90;;;;;;;19.66;81.26;101041.25;5006553;28;20638;-63
2022/07/23 05:30:11;;;;;;;1.65;0.98;;;;;;;19.66;81.40;101044.00;5003735;28;20033;-63
2022/07/23 05:32:39;;;;;;;1.58;1.02;;;;;;;19.63;81.78;101045.56;4995915;28;20508;-63
2022/07/23 05:35:16;;;;;;;2.78;0.98;;;;;;;19.58;82.52;101054.22;4998337;28;20028;-62
2022/07/23 05:37:52;;;;;;;1.80;1.15;;;;;;;19.56;83.04;101040.19;5020828;28;20029;-63
2022/07/23 05:40:21;;;;;;;1.40;1.30;;;;;;;19.59;83.05;101046.78;5011284;28;20083;-63
2022/07/23 05:42:49;;;;;;;2.10;1.00;;;;;;;19.59;83.14;101041.31;5010133;28;20129;-63
2022/07/23 05:45:23;;;;;;;1.98;1.00;;;;;;;19.64;83.05;101044.41;5012739;28;20052;-64
2022/07/23 05:47:50;;;;;;;2.00;1.02;;;;;;;19.69;82.68;101043.16;5008520;28;20038;-61
2022/07/23 05:50:24;;;;;;;3.03;1.30;;;;;;;19.68;83.18;101045.16;5009245;28;20071;-63
2022/07/23 05:52:57;;;;;;;1.90;0.82;;;;;;;19.65;83.21;101045.94;5010768;28;20025;-63
2022/07/23 05:55:41;;;;;;;1.10;0.85;;;;;;;19.71;83.46;101044.31;5014209;28;20049;-63
2022/07/23 05:58:09;;;;;;;1.83;0.95;;;;;;;19.78;83.25;101038.00;5016397;28;21916;-62
2022/07/23 06:00:40;;;;;;;1.10;1.00;;;;;;;19.83;82.70;101040.28;5015684;28;20026;-62
2022/07/23 06:03:08;;;;;;;5.47;1.10;;;;;;;19.96;82.21;101040.50;5004028;28;20022;-61
2022/07/23 06:05:38;;;;;;;2.72;1.38;;;;;;;20.00;82.30;101038.53;4998535;28;20103;-62
2022/07/23 06:08:07;;;;;;;2.47;1.13;;;;;;;20.07;81.58;101050.19;5004183;28;20041;-61
2022/07/23 06:10:33;;;;;;;1.65;0.90;;;;;;;20.08;81.53;101048.19;5014556;28;20021;-62
2022/07/23 06:12:59;;;;;;;2.17;1.00;;;;;;;20.12;81.23;101048.94;5011463;28;20103;-61
2022/07/23 06:15:24;;;;;;;2.42;1.52;;;;;;;20.11;81.17;101050.13;4996023;28;20072;-63
2022/07/23 06:17:53;;;;;;;1.67;1.23;;;;;;;20.14;81.21;101043.81;4986014;28;20512;-62
2022/07/23 06:20:21;;;;;;;2.35;1.35;;;;;;;20.16;81.03;101041.44;5004311;28;20127;-63
2022/07/23 06:22:52;;;;;;;1.10;1.00;;;;;;;20.26;80.71;101051.53;5003165;28;20029;-63
2022/07/23 06:25:20;;;;;;;1.40;1.08;;;;;;;20.37;80.59;101044.72;5016214;28;20018;-62
2022/07/23 06:27:48;;;;;;;4.18;1.65;;;;;;;20.39;79.95;101039.63;5006286;28;20033;-61
2022/07/23 06:30:16;;;;;;;1.52;1.13;;;;;;;20.45;79.34;101043.44;5008336;28;20521;-63
2022/07/23 06:32:51;;;;;;;1.52;1.23;;;;;;;20.62;78.23;101036.94;5022005;28;20033;-63
2022/07/23 06:35:17;;;;;;;1.48;1.10;;;;;;;20.77;77.67;101037.50;5011151;28;20041;-63
2022/07/23 06:37:45;;;;;;;4.45;1.25;;;;;;;20.98;76.77;101042.63;5018830;28;20679;-61
2022/07/23 06:40:14;;;;;;;1.60;1.10;;;;;;;21.20;76.38;101046.59;5000344;28;20021;-63
2022/07/23 06:42:40;;;;;;;3.33;1.25;;;;;;;21.39;75.28;101045.88;5021868;28;20030;-63
2022/07/23 06:45:07;;;;;;;3.90;1.10;;;;;;;21.49;73.45;101053.16;5009155;28;20057;-61
2022/07/23 06:47:38;;;;;;;2.38;1.05;;;;;;;21.56;72.73;101053.00;5011243;28;20328;-63
2022/07/23 06:50:06;;;;;;;1.50;1.00;;;;;;;21.55;71.80;101048.72;5003945;28;20034;-62
2022/07/23 06:52:47;;;;;;;2.45;0.63;;;;;;;21.58;71.78;101050.63;5032612;28;20053;-63
2022/07/23 06:55:15;;;;;;;2.33;0.98;;;;;;;21.63;71.48;101049.38;5005252;28;20033;-63
2022/07/23 06:57:48;;;;;;;2.20;0.63;;;;;;;21.76;71.31;101050.28;5027075;28;20488;-61
2022/07/23 07:00:14;;;;;;;2.72;1.30;;;;;;;21.88;71.10;101054.41;5021665;28;20025;-61
2022/07/23 07:02:41;;;;;;;0.77;0.70;;;;;;;21.91;70.53;101059.81;5021287;28;20037;-63
2022/07/23 07:05:07;;;;;;;2.03;0.80;;;;;;;21.87;69.46;101055.63;5011402;28;20037;-63
2022/07/23 07:07:35;;;;;;;3.25;0.80;;;;;;;21.82;68.38;101058.84;5015682;28;20038;-61
2022/07/23 07:10:04;;;;;;;2.95;0.80;;;;;;;21.74;68.65;101057.41;5019294;28;20075;-63
2022/07/23 07:12:32;;;;;;;0.90;0.80;;;;;;;21.67;69.16;101063.78;4998960;28;20038;-63
2022/07/23 07:15:00;;;;;;;1.85;0.68;;;;;;;21.62;69.48;101063.50;5026834;28;20112;-64
2022/07/23 07:17:26;;;;;;;1.83;0.75;;;;;;;21.54;69.49;101071.09;5012060;28;20076;-64
2022/07/23 07:19:55;;;;;;;2.45;0.80;;;;;;;21.53;69.73;101061.31;5011433;28;20500;-63
2022/07/23 07:22:23;;;;;;;0.93;0.80;;;;;;;21.58;69.61;101075.31;5018139;28;20392;-64
2022/07/23 07:25:09;;;;;;;0.80;0.57;;;;;;;21.51;69.52;101078.19;5023014;28;20032;-64
2022/07/23 07:27:43;;;;;;;2.22;0.77;;;;;;;21.42;69.75;101075.22;5013684;28;20095;-65
2022/07/23 07:30:10;;;;;;;0.70;0.57;;;;;;;21.44;69.34;101081.06;5028146;28;20029;-63
2022/07/23 07:32:43;;;;;;;1.67;0.70;;;;;;;21.45;68.96;101077.09;5023525;28;20507;-63
2022/07/23 07:35:11;;;;;;;0.45;0.40;;;;;;;21.49;69.02;101079.78;5019118;28;20029;-63
2022/07/23 07:37:36;;;;;;;0.40;0.40;;;;;;;21.48;69.04;101076.28;5023325;28;20030;-61
2022/07/23 07:40:03;;;;;;;1.67;0.40;;;;;;;21.55;68.79;101078.91;5022702;28;20041;-60
2022/07/23 07:42:33;;;;;;;0.50;0.32;;;;;;;21.72;68.33;101076.25;5005780;28;20484;-63
2022/07/23 07:44:59;;;;;;;0.50;0.32;;;;;;;21.93;67.09;101078.63;5013911;28;20037;-63
2022/07/23 07:47:27;;;;;;;0.38;0.22;;;;;;;22.10;65.84;101077.50;5016512;28;20037;-63
2022/07/23 07:50:00;;;;;;;0.60;0.30;;;;;;;22.23;64.70;101076.44;5023769;28;20034;-62
2022/07/23 07:52:28;;;;;;;2.20;0.22;;;;;;;22.56;64.42;101071.81;5005815;28;20072;-63
2022/07/23 07:54:57;;;;;;;0.25;0.25;;;;;;;22.82;64.36;101073.56;5013402;28;20806;-63
2022/07/23 07:57:25;;;;;;;0.52;0.30;;;;;;;22.93;62.63;101078.84;5017657;28;20109;-63
2022/07/23 07:59:52;;;;;;;0.30;0.30;;;;;;;22.96;61.05;101083.47;5020053;28;20041;-62
2022/07/23 08:02:20;;;;;;;0.20;0.20;;;;;;;22.87;60.58;101077.81;5008320;28;20025;-62
2022/07/23 08:04:48;;;;;;;0.30;0.30;;;;;;;22.62;60.90;101083.09;5011629;28;20060;-62
2022/07/23 08:07:20;;;;;;;0.30;0.30;;;;;;;22.43;62.48;101090.16;4978748;28;20069;-63
2022/07/23 08:09:45;;;;;;;;;;;;;;;22.18;65.31;101087.88;5027100;28;20124;-63
2022/07/23 08:12:23;;;;;;;1.38;0.47;;;;;;;22.09;67.91;101095.13;5021430;28;20295;-62
2022/07/23 08:14:48;;;;;;;1.90;0.90;;;;;;;22.02;68.85;101082.34;5016704;28;20038;-63
2022/07/23 08:17:14;;;;;;;2.30;0.30;;;;;;;21.98;70.51;101086.34;4998751;28;20573;-62
2022/07/23 08:19:47;;;;;;;0.82;0.35;;;;;;;22.02;70.51;101085.09;5017868;28;20483;-62
2022/07/23 08:22:18;;;;;;;0.50;0.32;;;;;;;22.18;70.69;101085.16;5020598;28;20033;-63
2022/07/23 08:24:47;;;;;;;1.58;0.35;;;;;;;22.38;69.65;101082.38;5012976;28;20164;-62
2022/07/23 08:27:15;;;;;;;0.40;0.28;;;;;;;22.61;68.59;101095.28;5017471;28;20041;-62
2022/07/23 08:29:41;;;;;;;0.40;0.30;;;;;;;22.77;66.46;101082.34;5020444;28;20198;-62
2022/07/23 08:32:09;;;;;;;0.20;0.20;;;;;;;22.98;66.45;101081.06;5012269;28;20041;-63
2022/07/23 08:34:36;;;;;;;1.27;0.22;;;;;;;23.17;65.34;101088.47;5021034;28;20030;-61
2022/07/23 08:37:07;;;;;;;0.30;0.30;;;;;;;23.33;63.79;101076.69;5009606;28;20100;-63
2022/07/23 08:39:37;;;;;;;0.28;0.28;;;;;;;23.45;63.60;101087.78;4994673;28;20042;-63
2022/07/23 08:42:06;;;;;;;0.70;0.28;;;;;;;23.41;62.20;101089.06;4994222;28;20038;-63
2022/07/23 08:44:40;;;;;;;0.20;0.20;;;;;;;23.28;60.17;101097.22;5020310;28;20037;-62
2022/07/23 08:47:09;;;;;;;0.40;0.17;;;;;;;23.15;60.05;101097.13;5021383;28;20040;-62
2022/07/23 08:49:36;;;;;;;0.32;0.30;;;;;;;23.05;59.92;101089.91;5015517;28;20527;-63
2022/07/23 08:52:05;;;;;;;1.30;0.30;;;;;;;23.00;60.27;101104.16;5014311;28;20034;-63
2022/07/23 08:54:54;;;;;;;0.13;0.13;;;;;;;22.83;60.15;101101.84;5028402;28;20041;-63
2022/07/23 08:57:22;;;;;;;0.30;0.30;;;;;;;22.51;61.53;101113.50;4967280;28;20046;-62
2022/07/23 08:59:50;;;;;;;1.02;0.20;;;;;;;22.34;60.20;101117.38;4951253;28;20071;-62
2022/07/23 09:02:16;;;;;;;0.30;0.10;;;;;;;22.09;61.34;101115.13;4955880;28;20556;-61
2022/07/23 09:04:46;;;;;;;0.40;0.20;;;;;;;21.95;62.69;101114.63;4941456;28;20054;-62
2022/07/23 09:07:14;;;;;;;0.40;0.20;;;;;;;21.83;63.97;101116.03;4955874;28;20043;-63
2022/07/23 09:09:43;;;;;;;1.45;0.10;;;;;;;21.77;65.32;101114.16;4952742;28;20043;-63
2022/07/23 09:12:18;;;;;;;0.00;0.00;;;;;;;21.73;66.27;101110.69;4934345;29;20039;-61
2022/07/23 09:14:48;;;;;;;0.15;0.10;;;;;;;21.76;65.09;101118.06;4951014;28;20069;-62
2022/07/23 09:17:16;;;;;;;0.68;0.20;;;;;;;21.88;64.23;101112.00;4954512;28;21959;-62
2022/07/23 09:19:47;;;;;;;0.13;0.10;;;;;;;22.00;63.84;101106.69;4959319;28;20129;-62
2022/07/23 09:22:17;;;;;;;0.40;0.20;;;;;;;22.19;62.13;101105.13;4958672;28;20101;-63
2022/07/23 09:25:11;;;;;;;0.10;0.00;;;;;;;22.26;61.68;101108.50;4952716;28;20126;-63
2022/07/23 09:27:55;;;;;;;0.20;0.10;;;;;;;22.36;60.94;101112.22;4929623;28;20051;-61
2022/07/23 09:30:27;;;;;;;0.22;0.10;;;;;;;22.48;61.09;101114.34;4955824;28;20515;-63
2022/07/23 09:33:05;;;;;;;;;;;;;;;22.47;60.86;101112.81;4954290;28;20073;-63
2022/07/23 09:35:55;;;;;;;0.30;0.10;;;;;;;22.61;60.04;101117.25;5013218;28;19913;-62
2022/07/23 09:38:24;;;;;;;3.70;0.10;;;;;;;22.67;60.61;101110.81;5015787;28;20424;-62
2022/07/23 09:41:07;;;;;;;1.17;0.20;;;;;;;22.77;60.39;101115.31;5019965;28;20033;-64
2022/07/23 09:43:34;;;;;;;0.32;0.30;;;;;;;22.81;60.18;101115.22;5013565;28;20037;-63
2022/07/23 09:46:28;;;;;;;1.98;0.22;;;;;;;22.83;60.21;101121.84;5011349;28;20037;-63
2022/07/23 09:48:57;;;;;;;1.38;0.30;;;;;;;22.94;60.17;101114.13;5024514;28;20037;-63
2022/07/23 09:51:30;;;;;;;1.15;0.40;;;;;;;23.05;59.77;101106.41;5002271;28;20030;-62
2022/07/23 09:54:01;;;;;;;1.00;0.20;;;;;;;23.11;58.81;101106.69;4997013;28;20092;-64
2022/07/23 09:56:28;;;;;;;0.75;0.22;;;;;;;23.19;57.98;101111.56;4992757;28;20370;-63
2022/07/23 10:01:53;;;;;;;0.17;0.17;;;;;;;23.44;58.41;101104.72;5006096;28;20056;-63
2022/07/23 10:04:20;;;;;;;0.28;0.20;;;;;;;23.61;56.78;101106.25;5011702;28;20029;-63
2022/07/23 10:07:23;;;;;;;0.90;0.30;;;;;;;23.65;56.42;101104.19;4995797;28;20034;-64
2022/07/23 10:10:02;;;;;;;0.55;0.30;;;;;;;23.58;55.82;101107.09;5011357;28;20055;-64
2022/07/23 10:15:22;;;;;;;0.20;0.15;;;;;;;23.58;56.48;101107.09;4989930;28;21060;-62
2022/07/23 10:17:53;;;;;;;0.10;0.10;;;;;;;23.57;57.12;101105.56;4989984;28;20056;-63
2022/07/23 10:20:19;;;;;;;0.77;0.17;;;;;;;23.54;57.52;101103.69;4975516;28;20042;-62
2022/07/23 10:23:12;;;;;;;1.27;0.20;;;;;;;23.52;57.28;101100.59;4978630;28;20036;-63
2022/07/23 10:25:37;;;;;;;0.15;0.13;;;;;;;23.36;57.88;101100.59;4969391;28;20081;-63
2022/07/23 10:28:06;;;;;;;0.60;0.30;;;;;;;23.34;57.59;101111.25;4973121;28;20034;-64
2022/07/23 10:30:55;;;;;;;0.63;0.30;;;;;;;23.25;57.50;101111.81;4975942;28;20442;-63
2022/07/23 10:33:40;;;;;;;0.55;0.20;;;;;;;23.11;56.56;101109.44;4972717;28;20042;-62
2022/07/23 10:36:21;;;;;;;0.63;0.20;;;;;;;23.06;56.81;101104.44;4990192;28;20042;-63
2022/07/23 10:38:59;;;;;;;0.10;0.10;;;;;;;22.95;57.48;101107.44;4958333;28;20070;-65
2022/07/23 10:41:36;;;;;;;0.63;0.20;;;;;;;23.14;58.19;101114.84;4957196;28;20042;-63
2022/07/23 10:44:14;;;;;;;0.30;0.30;;;;;;;23.30;58.03;101114.84;4971066;28;20053;-63
2022/07/23 10:49:30;;;;;;;1.10;0.40;;;;;;;23.47;56.87;101123.88;4973228;28;20034;-63
2022/07/23 10:52:14;;;;;;;0.85;0.35;;;;;;;23.61;55.90;101122.75;4981722;28;20031;-63
2022/07/23 10:54:51;;;;;;;0.98;0.20;;;;;;;23.72;55.07;101126.00;4966756;28;20117;-62
2022/07/23 10:57:29;;;;;;;0.88;0.30;;;;;;;23.90;54.17;101129.84;4976076;28;20034;-63
2022/07/23 11:00:22;;;;;;;1.73;0.22;;;;;;;24.06;53.41;101126.28;4976662;28;20058;-63
2022/07/23 11:02:59;;;;;;;0.73;0.50;;;;;;;24.25;53.18;101130.09;4988313;28;20085;-63
2022/07/23 11:05:42;;;;;;;0.35;0.20;;;;;;;24.28;52.42;101127.22;4986275;28;20037;-64
2022/07/23 11:08:28;;;;;;;0.20;0.13;;;;;;;24.30;52.24;101132.28;4985508;28;20049;-63
2022/07/23 11:11:18;;;;;;;0.10;0.10;;;;;;;24.37;51.62;101134.88;4973072;28;20080;-63
2022/07/23 11:13:46;;;;;;;0.47;0.10;;;;;;;24.47;51.73;101126.28;4982252;28;20141;-63
2022/07/23 11:16:23;;;;;;;0.38;0.25;;;;;;;24.64;51.59;101136.00;4983269;28;20053;-63
2022/07/23 11:18:48;;;;;;;0.00;0.00;;;;;;;24.87;51.06;101132.22;4977432;28;20034;-64
2022/07/23 11:21:23;;;;;;;0.52;0.10;;;;;;;25.11;47.92;101138.91;5001073;28;20727;-64
2022/07/23 11:24:24;;;;;;;0.10;0.10;;;;;;;25.25;48.47;101121.91;4991896;28;20022;-63
2022/07/23 11:26:53;;;;;;;1.48;0.20;;;;;;;25.44;48.96;101117.38;4974435;28;20047;-64
2022/07/23 11:29:28;;;;;;;0.50;0.10;;;;;;;25.68;48.51;101118.53;4980411;28;20034;-63
2022/07/23 11:32:00;;;;;;;0.63;0.10;;;;;;;25.77;48.22;101118.59;4966545;28;20587;-63
2022/07/23 11:34:38;;;;;;;0.22;0.20;;;;;;;25.82;48.96;101126.34;4982424;28;20394;-64
2022/07/23 11:37:05;;;;;;;0.75;0.20;;;;;;;25.69;49.20;101118.09;4991253;28;20034;-65
2022/07/23 11:39:32;;;;;;;0.47;0.08;;;;;;;25.60;48.72;101128.28;4972689;28;20488;-66
2022/07/23 11:42:04;;;;;;;0.57;0.20;;;;;;;25.33;48.57;101122.47;4978425;28;20042;-62
2022/07/23 11:44:41;;;;;;;0.32;0.20;;;;;;;24.99;49.71;101120.38;4982437;28;20035;-60
2022/07/23 11:47:11;;;;;;;0.47;0.15;;;;;;;24.87;50.32;101121.94;4978157;28;20843;-61
2022/07/23 11:49:37;;;;;;;0.10;0.10;;;;;;;25.13;50.19;101125.47;4979222;28;20055;-61
2022/07/23 11:52:11;;;;;;;0.52;0.10;;;;;;;25.36;50.38;101122.34;4973342;28;21710;-60